createdAt,value
2024-04-15T00:00:16.290Z,12.03
2024-04-15T00:02:55.386Z,17.39
2024-04-15T00:05:28.921Z,18.04
2024-04-15T00:08:02.762Z,12.37
2024-04-15T00:10:33.684Z,16.29
2024-04-15T00:13:07.662Z,16.93
2024-04-15T00:15:41.028Z,16.64
2024-04-15T00:18:17.431Z,17.28
2024-04-15T00:20:51.176Z,19.68
2024-04-15T00:23:24.906Z,17.30
2024-04-15T00:25:59.239Z,15.24
2024-04-15T00:28:33.454Z,17.46
2024-04-15T00:31:05.459Z,16.41
2024-04-15T00:33:41.735Z,14.53
2024-04-15T00:36:15.078Z,21.86
2024-04-15T00:38:51.246Z,18.27
2024-04-15T00:41:27.479Z,19.82
2024-04-15T00:44:01.255Z,17.77
2024-04-15T00:46:35.032Z,21.88
2024-04-15T00:49:08.566Z,22.50
2024-04-15T00:51:45.383Z,20.35
2024-04-15T00:54:19.056Z,22.31
2024-04-15T00:56:53.014Z,23.21
2024-04-15T00:59:27.560Z,20.87
2024-04-15T01:02:04.736Z,20.61
2024-04-15T01:04:41.223Z,18.11
2024-04-15T01:07:15.419Z,19.34
2024-04-15T01:09:49.240Z,19.96
2024-04-15T01:12:22.501Z,20.41
2024-04-15T01:14:53.695Z,20.82
2024-04-15T01:17:32.773Z,20.72
2024-04-15T01:20:06.752Z,19.87
2024-04-15T01:22:46.819Z,20.85
2024-04-15T01:25:17.984Z,22.09
2024-04-15T01:27:53.939Z,18.66
2024-04-15T01:30:25.595Z,18.48
2024-04-15T01:32:56.549Z,18.85
2024-04-15T01:35:28.798Z,17.95
2024-04-15T01:38:06.759Z,18.93
2024-04-15T01:40:45.125Z,16.66
2024-04-15T01:43:19.239Z,16.17
2024-04-15T01:45:53.340Z,17.41
2024-04-15T01:48:26.669Z,15.26
2024-04-15T01:51:02.979Z,19.79
2024-04-15T01:53:35.988Z,18.71
2024-04-15T01:56:12.388Z,17.85
2024-04-15T01:58:46.015Z,18.02
2024-04-15T02:01:20.527Z,19.29
2024-04-15T02:03:57.149Z,18.52
2024-04-15T02:06:31.079Z,18.85
2024-04-15T02:09:05.026Z,18.85
2024-04-15T02:11:41.116Z,21.57
2024-04-15T02:14:17.654Z,21.09
2024-04-15T02:16:51.176Z,16.25
2024-04-15T02:19:24.553Z,18.62
2024-04-15T02:21:58.132Z,22.17
2024-04-15T02:24:29.406Z,16.07
2024-04-15T02:27:02.951Z,20.36
2024-04-15T02:29:36.010Z,20.94
2024-04-15T02:32:07.155Z,21.35
2024-04-15T02:34:38.231Z,21.66
2024-04-15T02:37:11.575Z,21.37
2024-04-15T02:39:47.964Z,20.35
2024-04-15T02:42:21.913Z,21.57
2024-04-15T02:44:52.916Z,22.07
2024-04-15T02:47:26.699Z,22.14
2024-04-15T02:50:00.258Z,23.41
2024-04-15T02:52:31.252Z,20.04
2024-04-15T02:55:05.658Z,25.81
2024-04-15T02:57:39.340Z,23.11
2024-04-15T03:00:13.538Z,24.11
2024-04-15T03:02:48.861Z,25.33
2024-04-15T03:05:22.962Z,24.10
2024-04-15T03:07:56.655Z,26.32
2024-04-15T03:10:31.217Z,26.50
2024-04-15T03:13:04.639Z,25.36
2024-04-15T03:15:38.671Z,25.75
2024-04-15T03:18:11.990Z,23.08
2024-04-15T03:20:45.891Z,26.55
2024-04-15T03:23:18.973Z,29.24
2024-04-15T03:25:52.607Z,30.28
2024-04-15T03:28:25.668Z,33.01
2024-04-15T03:30:56.626Z,29.90
2024-04-15T03:33:29.772Z,27.75
2024-04-15T03:36:03.021Z,29.69
2024-04-15T03:38:37.800Z,34.26
2024-04-15T03:41:11.458Z,31.15
2024-04-15T03:43:43.429Z,34.11
2024-04-15T03:46:17.060Z,31.29
2024-04-15T03:48:50.894Z,30.51
2024-04-15T03:51:23.929Z,29.59
2024-04-15T03:53:57.994Z,30.72
2024-04-15T03:56:31.204Z,36.32
2024-04-15T03:59:04.634Z,34.56
2024-04-15T04:01:37.859Z,38.08
2024-04-15T04:04:12.030Z,36.25
2024-04-15T04:06:43.022Z,36.52
2024-04-15T04:09:19.106Z,33.76
2024-04-15T04:11:54.237Z,34.10
2024-04-15T04:14:28.965Z,35.73
2024-04-15T04:16:59.941Z,39.23
2024-04-15T04:19:34.471Z,36.57
2024-04-15T04:22:08.214Z,36.59
2024-04-15T04:24:42.431Z,41.47
2024-04-15T04:27:15.436Z,40.49
2024-04-15T04:29:51.870Z,44.70
2024-04-15T04:32:28.492Z,40.49
2024-04-15T04:35:02.886Z,43.31
2024-04-15T04:37:33.907Z,39.47
2024-04-15T04:40:07.769Z,44.11
2024-04-15T04:42:45.423Z,41.23
2024-04-15T04:45:19.381Z,40.63
2024-04-15T04:47:50.470Z,40.88
2024-04-15T04:50:24.503Z,42.88
2024-04-15T04:52:57.682Z,44.56
2024-04-15T04:55:33.005Z,40.91
2024-04-15T04:58:11.790Z,37.15
2024-04-15T05:00:45.222Z,41.27
2024-04-15T05:03:19.411Z,40.61
2024-04-15T05:05:52.694Z,41.75
2024-04-15T05:08:26.216Z,43.66
2024-04-15T05:10:59.774Z,39.65
2024-04-15T05:13:39.085Z,40.18
2024-04-15T05:16:16.006Z,48.47
2024-04-15T05:18:52.148Z,46.45
2024-04-15T05:21:23.275Z,44.51
2024-04-15T05:23:56.752Z,42.78
2024-04-15T05:26:30.771Z,44.02
2024-04-15T05:29:04.760Z,43.89
2024-04-15T05:31:38.300Z,42.05
2024-04-15T05:34:12.623Z,49.46
2024-04-15T05:36:46.482Z,45.29
2024-04-15T05:39:22.145Z,44.11
2024-04-15T05:41:53.062Z,46.01
2024-04-15T05:44:28.896Z,45.95
2024-04-15T05:47:04.786Z,43.20
2024-04-15T05:49:38.982Z,41.34
2024-04-15T05:52:13.108Z,40.28
2024-04-15T05:54:47.032Z,44.84
2024-04-15T05:57:18.029Z,41.42
2024-04-15T05:59:54.180Z,42.00
2024-04-15T06:02:28.848Z,46.09
2024-04-15T06:05:00.909Z,42.07
2024-04-15T06:07:34.208Z,39.72
2024-04-15T06:10:13.126Z,38.31
2024-04-15T06:12:45.269Z,40.50
2024-04-15T06:15:19.568Z,42.03
2024-04-15T06:17:50.602Z,41.53
2024-04-15T06:20:25.789Z,36.07
2024-04-15T06:22:59.011Z,36.57
2024-04-15T06:25:33.001Z,33.53
2024-04-15T06:28:06.458Z,36.25
2024-04-15T06:30:40.736Z,33.55
2024-04-15T06:33:17.049Z,32.71
2024-04-15T06:35:55.733Z,31.03
2024-04-15T06:38:29.394Z,28.65
2024-04-15T06:41:03.348Z,28.54
2024-04-15T06:43:34.465Z,26.12
2024-04-15T06:46:08.860Z,28.80
2024-04-15T06:48:44.744Z,28.95
2024-04-15T06:51:18.542Z,26.22
2024-04-15T06:53:57.768Z,26.55
2024-04-15T06:56:28.747Z,25.67
2024-04-15T06:59:06.047Z,23.67
2024-04-15T07:01:39.328Z,23.54
2024-04-15T07:04:13.174Z,25.67
2024-04-15T07:06:48.634Z,22.10
2024-04-15T07:09:27.811Z,24.84
2024-04-15T07:12:04.347Z,22.13
2024-04-15T07:14:38.151Z,23.76
2024-04-15T07:17:09.200Z,25.20
2024-04-15T07:22:38.897Z,23.43
2024-04-15T07:25:10.995Z,21.38
2024-04-15T07:27:42.508Z,22.19
2024-04-15T07:30:13.518Z,20.71
2024-04-15T07:32:46.725Z,24.80
2024-04-15T07:35:17.777Z,21.70
2024-04-15T07:37:51.092Z,20.04
2024-04-15T07:40:23.524Z,23.87
2024-04-15T07:42:56.657Z,21.14
2024-04-15T07:45:27.741Z,26.19
2024-04-15T07:47:58.699Z,26.34
2024-04-15T07:50:29.659Z,27.03
2024-04-15T07:53:06.873Z,26.71
2024-04-15T07:55:39.081Z,31.02
2024-04-15T07:58:10.064Z,30.89
2024-04-15T08:00:41.239Z,33.85
2024-04-15T08:03:12.163Z,33.67
2024-04-15T08:05:43.522Z,36.54
2024-04-15T08:08:14.610Z,31.43
2024-04-15T08:10:45.562Z,36.97
2024-04-15T08:13:16.672Z,40.94
2024-04-15T08:15:48.821Z,44.69
2024-04-15T08:18:19.729Z,42.36
2024-04-15T08:20:57.468Z,44.04
2024-04-15T08:23:28.605Z,44.75
2024-04-15T08:26:00.790Z,41.68
2024-04-15T08:28:31.762Z,39.92
2024-04-15T08:31:02.741Z,40.93
2024-04-15T08:33:33.923Z,45.99
2024-04-15T08:36:04.933Z,50.33
2024-04-15T08:38:35.835Z,40.86
2024-04-15T08:41:08.020Z,47.73
2024-04-15T08:43:40.087Z,47.03
2024-04-15T08:46:17.479Z,43.40
2024-04-15T08:48:48.498Z,50.31
2024-04-15T08:51:20.541Z,46.15
2024-04-15T08:53:51.606Z,44.16
2024-04-15T08:56:22.566Z,50.53
2024-04-15T08:59:00.540Z,49.68
2024-04-15T09:01:32.666Z,41.59
2024-04-15T09:04:04.896Z,41.61
2024-04-15T09:06:36.085Z,44.73
2024-04-15T09:09:07.093Z,42.23
2024-04-15T09:11:38.539Z,38.33
2024-04-15T09:14:10.535Z,38.65
2024-04-15T09:16:41.643Z,40.54
2024-04-15T09:19:12.728Z,39.88
2024-04-15T09:21:43.665Z,35.51
2024-04-15T09:24:16.796Z,38.12
2024-04-15T09:26:48.031Z,36.91
2024-04-15T09:29:18.916Z,43.09
2024-04-15T09:31:49.839Z,44.58
2024-04-15T09:34:21.012Z,46.01
2024-04-15T09:37:02.729Z,43.72
2024-04-15T09:39:34.384Z,37.73
2024-04-15T09:42:05.797Z,37.58
2024-04-15T09:44:43.043Z,39.38
2024-04-15T09:47:14.539Z,36.66
2024-04-15T09:49:46.342Z,34.86
2024-04-15T09:52:24.969Z,36.39
2024-04-15T09:55:10.347Z,37.82
2024-04-15T09:57:42.250Z,35.80
2024-04-15T10:00:16.856Z,39.49
2024-04-15T10:03:02.488Z,37.73
2024-04-15T10:05:42.500Z,34.30
2024-04-15T10:08:15.189Z,32.08
2024-04-15T10:10:46.821Z,34.09
2024-04-15T10:13:19.839Z,38.41
2024-04-15T10:16:01.524Z,37.37
2024-04-15T10:18:32.800Z,37.89
2024-04-15T10:21:05.315Z,39.26
2024-04-15T10:23:36.391Z,40.26
2024-04-15T10:26:07.525Z,32.90
2024-04-15T10:28:38.519Z,36.60
2024-04-15T10:31:09.517Z,36.77
2024-04-15T10:33:50.615Z,38.47
2024-04-15T10:36:31.503Z,33.67
2024-04-15T10:39:07.470Z,30.91
2024-04-15T10:41:40.764Z,30.69
2024-04-15T10:44:12.229Z,33.83
2024-04-15T10:46:44.650Z,30.55
2024-04-15T10:49:17.554Z,31.74
2024-04-15T10:51:48.844Z,33.95
2024-04-15T10:54:20.064Z,36.50
2024-04-15T10:56:51.203Z,35.18
2024-04-15T10:59:22.586Z,35.35
2024-04-15T11:01:53.661Z,36.57
2024-04-15T11:04:25.268Z,43.85
2024-04-15T11:06:56.278Z,44.99
2024-04-15T11:09:27.323Z,48.74
2024-04-15T11:11:59.429Z,50.10
2024-04-15T11:14:32.185Z,49.35
2024-04-15T11:17:05.089Z,48.63
2024-04-15T11:19:38.183Z,50.67
2024-04-15T11:22:10.194Z,48.73
2024-04-15T11:24:42.501Z,55.11
2024-04-15T11:27:14.960Z,50.04
2024-04-15T11:29:52.329Z,55.79
2024-04-15T11:32:31.316Z,47.84
2024-04-15T11:35:06.342Z,44.47
2024-04-15T11:37:37.301Z,47.21
2024-04-15T11:40:10.752Z,44.55
2024-04-15T11:42:43.265Z,45.36
2024-04-15T11:45:17.077Z,39.82
2024-04-15T11:47:48.136Z,38.26
2024-04-15T11:50:19.140Z,38.50
2024-04-15T11:52:50.585Z,43.65
2024-04-15T11:55:22.658Z,38.79
2024-04-15T11:57:53.741Z,37.60
2024-04-15T12:00:24.741Z,43.58
2024-04-15T12:02:55.882Z,43.83
2024-04-15T12:05:30.056Z,41.70
2024-04-15T12:08:01.027Z,39.79
2024-04-15T12:10:32.023Z,41.13
2024-04-15T12:13:03.001Z,39.02
2024-04-15T12:15:34.035Z,40.65
2024-04-15T12:18:06.394Z,41.84
2024-04-15T12:20:37.414Z,43.03
2024-04-15T12:23:08.345Z,38.19
2024-04-15T12:25:40.733Z,33.81
2024-04-15T12:28:11.735Z,41.60
2024-04-15T12:30:42.714Z,41.58
2024-04-15T12:33:13.627Z,41.70
2024-04-15T12:35:48.005Z,44.60
2024-04-15T12:38:18.958Z,39.99
2024-04-15T12:40:51.095Z,43.99
2024-04-15T12:43:22.108Z,41.65
2024-04-15T12:45:53.289Z,40.57
2024-04-15T12:48:24.766Z,37.30
2024-04-15T12:50:58.287Z,38.55
2024-04-15T12:53:29.233Z,39.16
2024-04-15T12:56:00.274Z,10.73
2024-04-15T12:58:31.234Z,6.21
2024-04-15T13:01:04.862Z,5.10
2024-04-15T13:03:37.651Z,4.44
2024-04-15T13:06:10.710Z,4.65
2024-04-15T13:08:41.705Z,4.89
2024-04-15T13:11:12.765Z,3.41
2024-04-15T13:13:43.980Z,5.82
2024-04-15T13:16:14.905Z,5.09
2024-04-15T13:18:45.789Z,5.77
2024-04-15T13:21:16.748Z,6.05
2024-04-15T13:23:51.759Z,6.05
2024-04-15T13:26:22.738Z,7.65
2024-04-15T13:28:54.855Z,5.36
2024-04-15T13:31:25.844Z,6.21
2024-04-15T13:33:57.290Z,6.94
2024-04-15T13:36:28.618Z,8.26
2024-04-15T13:38:59.980Z,6.27
2024-04-15T13:41:31.080Z,5.56
2024-04-15T13:44:02.107Z,4.54
2024-04-15T13:46:33.030Z,6.32
2024-04-15T13:49:04.020Z,6.37
2024-04-15T13:51:34.997Z,5.77
2024-04-15T13:54:06.154Z,5.35
2024-04-15T13:56:37.090Z,8.03
2024-04-15T13:59:08.106Z,6.57
2024-04-15T14:01:39.019Z,7.05
2024-04-15T14:04:10.084Z,8.41
2024-04-15T14:06:41.144Z,7.59
2024-04-15T14:09:15.515Z,8.93
2024-04-15T14:11:46.588Z,8.30
2024-04-15T14:14:18.667Z,9.44
2024-04-15T14:16:51.540Z,10.29
2024-04-15T14:19:23.124Z,9.19
2024-04-15T14:21:54.488Z,10.38
2024-04-15T14:24:26.492Z,8.48
2024-04-15T14:26:57.885Z,10.35
2024-04-15T14:29:28.914Z,10.39
2024-04-15T14:31:59.805Z,11.77
2024-04-15T14:34:31.016Z,9.73
2024-04-15T14:37:04.182Z,10.03
2024-04-15T14:39:35.126Z,11.41
2024-04-15T14:42:06.182Z,11.47
2024-04-15T14:44:38.240Z,13.09
2024-04-15T14:47:09.757Z,12.13
2024-04-15T14:49:40.714Z,14.25
2024-04-15T14:52:11.638Z,9.16
2024-04-15T14:54:43.160Z,7.63
2024-04-15T14:57:14.280Z,7.22
2024-04-15T14:59:48.918Z,8.45
2024-04-15T15:02:21.800Z,9.99
2024-04-15T15:04:54.039Z,9.40
2024-04-15T15:07:25.056Z,7.17
2024-04-15T15:09:56.522Z,10.15
2024-04-15T15:12:27.617Z,10.61
2024-04-15T15:14:59.657Z,13.91
2024-04-15T15:17:30.600Z,9.82
2024-04-15T15:20:01.593Z,11.25
2024-04-15T15:22:32.632Z,12.73
2024-04-15T15:25:04.731Z,9.71
2024-04-15T15:27:35.978Z,8.55
2024-04-15T15:30:07.009Z,6.88
2024-04-15T15:32:37.975Z,6.95
2024-04-15T15:35:09.785Z,8.09
2024-04-15T15:37:40.701Z,6.23
2024-04-15T15:40:11.674Z,7.86
2024-04-15T15:42:42.634Z,8.21
2024-04-15T15:45:14.642Z,7.15
2024-04-15T15:47:45.845Z,8.83
2024-04-15T15:50:17.128Z,8.51
2024-04-15T15:52:48.861Z,11.36
2024-04-15T15:55:21.583Z,10.47
2024-04-15T15:57:52.720Z,10.66
2024-04-15T16:00:23.600Z,17.21
2024-04-15T16:02:54.537Z,14.29
2024-04-15T16:05:27.687Z,13.65
2024-04-15T16:08:01.349Z,14.05
2024-04-15T16:10:34.260Z,13.17
2024-04-15T16:13:05.249Z,14.55
2024-04-15T16:15:37.179Z,12.59
2024-04-15T16:18:08.691Z,15.39
2024-04-15T16:20:39.844Z,13.24
2024-04-15T16:23:10.792Z,10.31
2024-04-15T16:25:42.885Z,9.85
2024-04-15T16:28:14.247Z,8.26
2024-04-15T16:30:45.231Z,7.53
2024-04-15T16:33:16.183Z,7.34
2024-04-15T16:35:47.410Z,7.16
2024-04-15T16:38:18.484Z,7.50
2024-04-15T16:40:49.671Z,8.35
2024-04-15T16:43:20.727Z,8.91
2024-04-15T16:45:52.930Z,9.38
2024-04-15T16:48:24.651Z,6.60
2024-04-15T16:50:55.525Z,6.33
2024-04-15T16:53:26.436Z,6.67
2024-04-15T16:55:57.444Z,6.97
2024-04-15T16:58:28.386Z,6.79
2024-04-15T17:00:59.447Z,5.78
2024-04-15T17:03:30.410Z,5.32
2024-04-15T17:06:01.405Z,5.19
2024-04-15T17:08:32.540Z,6.06
2024-04-15T17:11:03.451Z,7.49
2024-04-15T17:13:34.457Z,6.03
2024-04-15T17:16:05.482Z,9.72
2024-04-15T17:18:36.486Z,7.11
2024-04-15T17:21:07.623Z,16.01
2024-04-15T17:23:38.552Z,18.21
2024-04-15T17:26:09.830Z,9.39
2024-04-15T17:28:40.890Z,9.43
2024-04-15T17:31:12.671Z,8.64
2024-04-15T17:33:43.703Z,8.17
2024-04-15T17:36:14.697Z,7.13
2024-04-15T17:38:45.564Z,7.73
2024-04-15T17:41:16.812Z,9.28
2024-04-15T17:43:47.901Z,15.06
2024-04-15T17:46:18.830Z,9.41
2024-04-15T17:48:49.805Z,13.25
2024-04-15T17:51:20.664Z,11.68
2024-04-15T17:53:51.651Z,15.48
2024-04-15T17:56:22.703Z,14.29
2024-04-15T17:58:53.631Z,9.59
2024-04-15T18:01:24.585Z,9.86
2024-04-15T18:03:55.786Z,8.51
2024-04-15T18:06:26.761Z,10.89
2024-04-15T18:08:58.096Z,11.31
2024-04-15T18:11:29.276Z,10.81
2024-04-15T18:14:02.713Z,8.23
2024-04-15T18:16:33.835Z,7.13
2024-04-15T18:19:05.091Z,6.58
2024-04-15T18:21:36.001Z,7.99
2024-04-15T18:24:07.238Z,5.17
2024-04-15T18:26:38.180Z,3.29
2024-04-15T18:29:09.124Z,8.39
2024-04-15T18:31:42.417Z,6.79
2024-04-15T18:34:15.958Z,3.97
2024-04-15T18:36:47.550Z,3.25
2024-04-15T18:39:18.457Z,3.69
2024-04-15T18:41:49.367Z,3.55
2024-04-15T18:44:23.754Z,4.41
2024-04-15T18:46:54.614Z,4.83
2024-04-15T18:49:25.585Z,4.18
2024-04-15T18:51:56.774Z,4.26
2024-04-15T18:54:28.989Z,5.47
2024-04-15T18:56:59.925Z,6.17
2024-04-15T18:59:30.787Z,6.15
2024-04-15T19:02:01.701Z,4.91
2024-04-15T19:04:33.032Z,7.39
2024-04-15T19:07:04.212Z,6.10
2024-04-15T19:09:35.778Z,4.87
2024-04-15T19:12:06.804Z,6.38
2024-04-15T19:14:51.620Z,6.41
2024-04-15T19:17:29.260Z,6.41
2024-04-15T19:20:00.184Z,7.09
2024-04-15T19:22:31.210Z,7.61
2024-04-15T19:25:03.231Z,6.76
2024-04-15T19:27:34.487Z,7.39
2024-04-15T19:30:05.622Z,9.87
2024-04-15T19:32:37.282Z,49.89
2024-04-15T19:35:09.447Z,40.82
2024-04-15T19:37:40.672Z,11.34
2024-04-15T19:40:12.721Z,4.44
2024-04-15T19:42:43.715Z,5.01
2024-04-15T19:45:14.706Z,3.40
2024-04-15T19:47:45.982Z,3.57
2024-04-15T19:50:16.927Z,3.15
2024-04-15T19:52:47.830Z,4.87
2024-04-15T19:55:19.024Z,2.70
2024-04-15T19:57:49.993Z,4.11
2024-04-15T20:00:20.962Z,3.94
2024-04-15T20:02:52.056Z,5.31
2024-04-15T20:05:24.132Z,4.86
2024-04-15T20:07:58.494Z,4.77
2024-04-15T20:10:34.426Z,5.89
2024-04-15T20:13:05.353Z,5.05
2024-04-15T20:15:36.559Z,6.55
2024-04-15T20:18:10.826Z,5.67
2024-04-15T20:20:45.026Z,5.89
2024-04-15T20:23:20.704Z,6.87
2024-04-15T20:25:51.806Z,5.97
2024-04-15T20:28:22.874Z,6.41
2024-04-15T20:30:53.920Z,7.20
2024-04-15T20:33:25.083Z,5.54
2024-04-15T20:35:58.346Z,6.35
2024-04-15T20:38:29.268Z,5.56
2024-04-15T20:41:00.217Z,7.09
2024-04-15T20:43:31.329Z,5.76
2024-04-15T20:46:02.550Z,5.83
2024-04-15T20:48:33.552Z,4.40
2024-04-15T20:51:04.457Z,5.88
2024-04-15T20:53:35.772Z,6.20
2024-04-15T20:56:07.034Z,6.93
2024-04-15T20:58:38.128Z,7.53
2024-04-15T21:01:10.516Z,7.47
2024-04-15T21:03:41.694Z,7.29
2024-04-15T21:06:13.408Z,11.12
2024-04-15T21:08:44.386Z,10.05
2024-04-15T21:11:15.396Z,7.35
2024-04-15T21:13:46.410Z,6.47
2024-04-15T21:16:17.304Z,7.14
2024-04-15T21:18:48.271Z,7.81
2024-04-15T21:21:19.141Z,8.87
2024-04-15T21:23:49.991Z,6.79
2024-04-15T21:26:20.911Z,12.05
2024-04-15T21:28:51.883Z,12.66
2024-04-15T21:31:22.892Z,14.47
2024-04-15T21:33:55.997Z,8.74
2024-04-15T21:36:26.996Z,9.29
2024-04-15T21:38:57.832Z,9.05
2024-04-15T21:41:29.079Z,9.05
2024-04-15T21:44:00.168Z,7.89
2024-04-15T21:46:31.310Z,10.13
2024-04-15T21:49:02.333Z,9.10
2024-04-15T21:51:33.289Z,8.23
2024-04-15T21:54:05.612Z,10.13
2024-04-15T21:56:36.602Z,10.68
2024-04-15T21:59:07.566Z,13.57
2024-04-15T22:01:38.556Z,11.13
2024-04-15T22:04:09.936Z,12.30
2024-04-15T22:06:40.928Z,10.43
2024-04-15T22:09:11.995Z,12.04
2024-04-15T22:11:42.978Z,13.11
2024-04-15T22:14:14.137Z,15.59
2024-04-15T22:16:45.093Z,15.39
2024-04-15T22:19:16.187Z,16.68
2024-04-15T22:21:47.535Z,20.93
2024-04-15T22:24:18.653Z,17.49
2024-04-15T22:26:49.644Z,19.11
2024-04-15T22:29:20.635Z,19.43
2024-04-15T22:31:52.801Z,21.50
2024-04-15T22:34:25.208Z,20.49
2024-04-15T22:36:56.282Z,19.73
2024-04-15T22:39:27.215Z,19.55
2024-04-15T22:41:58.982Z,21.36
2024-04-15T22:44:30.547Z,21.23
2024-04-15T22:47:01.463Z,20.16
2024-04-15T22:49:32.531Z,22.11
2024-04-15T22:52:03.527Z,23.33
2024-04-15T22:54:34.552Z,23.51
2024-04-15T22:57:05.529Z,23.35
2024-04-15T22:59:36.491Z,21.82
2024-04-15T23:02:07.516Z,21.31
2024-04-15T23:04:39.757Z,19.45
2024-04-15T23:07:13.262Z,20.81
2024-04-15T23:09:44.212Z,22.10
2024-04-15T23:12:15.119Z,21.82
2024-04-15T23:14:48.240Z,22.79
2024-04-15T23:17:19.222Z,22.94
2024-04-15T23:19:50.173Z,23.07
2024-04-15T23:22:22.476Z,23.06
2024-04-15T23:24:55.019Z,20.50
2024-04-15T23:27:25.944Z,23.91
2024-04-15T23:29:56.852Z,21.47
2024-04-15T23:32:27.933Z,22.01
2024-04-15T23:35:03.716Z,21.67
2024-04-15T23:37:37.534Z,20.87
2024-04-15T23:40:11.498Z,21.93
2024-04-15T23:42:45.443Z,19.53
2024-04-15T23:45:35.353Z,23.37
2024-04-15T23:48:25.764Z,22.05
2024-04-15T23:51:15.138Z,20.81
2024-04-15T23:54:04.714Z,21.08
2024-04-15T23:56:54.282Z,20.22
2024-04-15T23:59:25.226Z,21.69
